sensor_id;sensor_type;location;lat;lon;timestamp;P1;durP1;ratioP1;P2;durP2;ratioP2
45338;SDS011;31071;51.478;5.710;2023-03-04T07:19:14;9.70;;;2.50;;
45338;SDS011;31071;51.478;5.710;2023-03-04T07:21:44;8.13;;;2.38;;
45338;SDS011;31071;51.478;5.710;2023-03-04T07:24:10;13.77;;;2.60;;
45338;SDS011;31071;51.478;5.710;2023-03-04T07:26:40;7.65;;;2.25;;
45338;SDS011;31071;51.478;5.710;2023-03-04T07:29:07;13.63;;;2.28;;
45338;SDS011;31071;51.478;5.710;2023-03-04T07:31:36;12.48;;;2.50;;
45338;SDS011;31071;51.478;5.710;2023-03-04T07:34:06;9.50;;;2.55;;
45338;SDS011;31071;51.478;5.710;2023-03-04T07:36:36;9.30;;;2.15;;
45338;SDS011;31071;51.478;5.710;2023-03-04T07:39:02;16.45;;;2.63;;
45338;SDS011;31071;51.478;5.710;2023-03-04T07:41:33;7.55;;;2.70;;
45338;SDS011;31071;51.478;5.710;2023-03-04T07:44:09;9.68;;;2.17;;
45338;SDS011;31071;51.478;5.710;2023-03-04T07:46:54;10.98;;;1.90;;
45338;SDS011;31071;51.478;5.710;2023-03-04T07:50:05;12.35;;;2.20;;
45338;SDS011;31071;51.478;5.710;2023-03-04T07:52:48;14.77;;;2.53;;
45338;SDS011;31071;51.478;5.710;2023-03-04T07:55:25;13.68;;;2.97;;
45338;SDS011;31071;51.478;5.710;2023-03-04T08:15:50;15.75;;;2.55;;
45338;SDS011;31071;51.478;5.710;2023-03-04T08:18:15;10.15;;;2.28;;
45338;SDS011;31071;51.478;5.710;2023-03-04T08:20:42;11.30;;;2.80;;
45338;SDS011;31071;51.478;5.710;2023-03-04T08:23:11;11.75;;;2.30;;
45338;SDS011;31071;51.478;5.710;2023-03-04T08:25:40;7.70;;;2.10;;
45338;SDS011;31071;51.478;5.710;2023-03-04T08:28:06;9.52;;;2.33;;
45338;SDS011;31071;51.478;5.710;2023-03-04T08:34:19;11.40;;;2.90;;
45338;SDS011;31071;51.478;5.710;2023-03-04T08:39:43;12.75;;;2.63;;
45338;SDS011;31071;51.478;5.710;2023-03-04T08:42:09;10.77;;;2.40;;
45338;SDS011;31071;51.478;5.710;2023-03-04T08:44:34;7.60;;;2.60;;
45338;SDS011;31071;51.478;5.710;2023-03-04T08:47:09;11.27;;;2.30;;
45338;SDS011;31071;51.478;5.710;2023-03-04T08:49:38;8.98;;;2.20;;
45338;SDS011;31071;51.478;5.710;2023-03-04T08:52:03;11.38;;;2.58;;
45338;SDS011;31071;51.478;5.710;2023-03-04T08:54:29;10.95;;;2.70;;
45338;SDS011;31071;51.478;5.710;2023-03-04T08:56:54;9.80;;;2.70;;
45338;SDS011;31071;51.478;5.710;2023-03-04T08:59:20;11.75;;;2.05;;
45338;SDS011;31071;51.478;5.710;2023-03-04T09:01:45;7.35;;;2.60;;
45338;SDS011;31071;51.478;5.710;2023-03-04T09:04:11;10.90;;;2.05;;
45338;SDS011;31071;51.478;5.710;2023-03-04T09:06:37;8.98;;;2.47;;
45338;SDS011;31071;51.478;5.710;2023-03-04T09:09:03;11.93;;;2.40;;
45338;SDS011;31071;51.478;5.710;2023-03-04T09:11:29;7.53;;;2.15;;
45338;SDS011;31071;51.478;5.710;2023-03-04T09:13:55;12.00;;;2.10;;
45338;SDS011;31071;51.478;5.710;2023-03-04T09:16:21;7.35;;;2.13;;
45338;SDS011;31071;51.478;5.710;2023-03-04T09:18:47;8.63;;;2.45;;
45338;SDS011;31071;51.478;5.710;2023-03-04T09:21:12;6.93;;;2.15;;
45338;SDS011;31071;51.478;5.710;2023-03-04T09:23:38;12.80;;;2.50;;
45338;SDS011;31071;51.478;5.710;2023-03-04T09:26:22;7.65;;;2.38;;
45338;SDS011;31071;51.478;5.710;2023-03-04T09:28:53;12.55;;;2.83;;
45338;SDS011;31071;51.478;5.710;2023-03-04T09:31:22;9.18;;;2.47;;
45338;SDS011;31071;51.478;5.710;2023-03-04T09:33:48;9.65;;;2.55;;
45338;SDS011;31071;51.478;5.710;2023-03-04T09:36:15;7.88;;;2.53;;
45338;SDS011;31071;51.478;5.710;2023-03-04T09:38:41;6.53;;;2.00;;
45338;SDS011;31071;51.478;5.710;2023-03-04T09:41:12;9.05;;;2.20;;
45338;SDS011;31071;51.478;5.710;2023-03-04T09:43:44;8.48;;;2.17;;
45338;SDS011;31071;51.478;5.710;2023-03-04T09:46:11;10.98;;;3.30;;
45338;SDS011;31071;51.478;5.710;2023-03-04T09:48:46;10.75;;;2.28;;
45338;SDS011;31071;51.478;5.710;2023-03-04T09:51:21;7.03;;;2.25;;
45338;SDS011;31071;51.478;5.710;2023-03-04T09:56:34;3.60;;;1.38;;
45338;SDS011;31071;51.478;5.710;2023-03-04T09:59:08;8.05;;;1.70;;
45338;SDS011;31071;51.478;5.710;2023-03-04T10:01:49;5.53;;;1.52;;
45338;SDS011;31071;51.478;5.710;2023-03-04T10:06:59;4.82;;;1.13;;
45338;SDS011;31071;51.478;5.710;2023-03-04T10:09:28;7.30;;;1.45;;
45338;SDS011;31071;51.478;5.710;2023-03-04T10:17:18;6.90;;;1.63;;
45338;SDS011;31071;51.478;5.710;2023-03-04T10:22:44;4.65;;;1.42;;
45338;SDS011;31071;51.478;5.710;2023-03-04T10:25:17;3.35;;;1.02;;
45338;SDS011;31071;51.478;5.710;2023-03-04T10:33:49;7.18;;;1.73;;
45338;SDS011;31071;51.478;5.710;2023-03-04T10:36:03;7.28;;;1.67;;
45338;SDS011;31071;51.478;5.710;2023-03-04T10:38:30;4.95;;;1.30;;
45338;SDS011;31071;51.478;5.710;2023-03-04T10:40:57;3.95;;;1.50;;
45338;SDS011;31071;51.478;5.710;2023-03-04T10:43:23;5.40;;;1.85;;
45338;SDS011;31071;51.478;5.710;2023-03-04T10:45:51;4.05;;;1.20;;
45338;SDS011;31071;51.478;5.710;2023-03-04T10:48:25;5.82;;;1.70;;
45338;SDS011;31071;51.478;5.710;2023-03-04T10:50:52;6.70;;;1.50;;
45338;SDS011;31071;51.478;5.710;2023-03-04T10:53:29;3.92;;;1.35;;
45338;SDS011;31071;51.478;5.710;2023-03-04T10:56:01;5.38;;;1.48;;
45338;SDS011;31071;51.478;5.710;2023-03-04T10:58:27;2.40;;;1.38;;
45338;SDS011;31071;51.478;5.710;2023-03-04T11:01:00;3.53;;;1.13;;
45338;SDS011;31071;51.478;5.710;2023-03-04T11:06:06;4.45;;;2.00;;
45338;SDS011;31071;51.478;5.710;2023-03-04T11:08:35;7.18;;;1.95;;
45338;SDS011;31071;51.478;5.710;2023-03-04T11:11:09;6.35;;;1.92;;
45338;SDS011;31071;51.478;5.710;2023-03-04T11:13:52;5.95;;;1.83;;
45338;SDS011;31071;51.478;5.710;2023-03-04T11:16:26;7.38;;;1.90;;
45338;SDS011;31071;51.478;5.710;2023-03-04T11:18:57;8.05;;;2.10;;
45338;SDS011;31071;51.478;5.710;2023-03-04T11:21:36;4.32;;;2.05;;
45338;SDS011;31071;51.478;5.710;2023-03-04T11:24:21;3.67;;;1.75;;
45338;SDS011;31071;51.478;5.710;2023-03-04T11:27:12;4.63;;;1.40;;
45338;SDS011;31071;51.478;5.710;2023-03-04T11:29:43;4.15;;;2.00;;
45338;SDS011;31071;51.478;5.710;2023-03-04T11:34:50;7.88;;;1.80;;
45338;SDS011;31071;51.478;5.710;2023-03-04T11:37:39;6.72;;;2.08;;
45338;SDS011;31071;51.478;5.710;2023-03-04T11:40:28;6.45;;;1.90;;
45338;SDS011;31071;51.478;5.710;2023-03-04T11:43:10;4.32;;;1.98;;
45338;SDS011;31071;51.478;5.710;2023-03-04T11:56:43;2.92;;;1.75;;
45338;SDS011;31071;51.478;5.710;2023-03-04T12:02:16;3.47;;;1.60;;
45338;SDS011;31071;51.478;5.710;2023-03-04T12:04:51;3.00;;;1.50;;
45338;SDS011;31071;51.478;5.710;2023-03-04T12:10:43;3.47;;;1.20;;
45338;SDS011;31071;51.478;5.710;2023-03-04T12:13:34;1.23;;;0.88;;
45338;SDS011;31071;51.478;5.710;2023-03-04T12:18:47;2.75;;;1.35;;
45338;SDS011;31071;51.478;5.710;2023-03-04T12:21:29;1.77;;;1.15;;
45338;SDS011;31071;51.478;5.710;2023-03-04T12:33:13;3.85;;;2.00;;
45338;SDS011;31071;51.478;5.710;2023-03-04T12:35:52;5.70;;;2.20;;
45338;SDS011;31071;51.478;5.710;2023-03-04T12:38:29;3.83;;;2.38;;
45338;SDS011;31071;51.478;5.710;2023-03-04T12:41:40;3.78;;;2.70;;
45338;SDS011;31071;51.478;5.710;2023-03-04T12:44:14;4.13;;;3.05;;
45338;SDS011;31071;51.478;5.710;2023-03-04T12:47:22;5.07;;;2.85;;
45338;SDS011;31071;51.478;5.710;2023-03-04T12:53:02;5.60;;;3.55;;
45338;SDS011;31071;51.478;5.710;2023-03-04T12:55:39;4.78;;;2.75;;
45338;SDS011;31071;51.478;5.710;2023-03-04T12:58:27;3.58;;;2.80;;
45338;SDS011;31071;51.478;5.710;2023-03-04T13:06:38;5.93;;;3.92;;
45338;SDS011;31071;51.478;5.710;2023-03-04T13:09:53;2.80;;;2.55;;
45338;SDS011;31071;51.478;5.710;2023-03-04T13:12:23;3.97;;;2.60;;
45338;SDS011;31071;51.478;5.710;2023-03-04T13:25:39;3.28;;;2.05;;
45338;SDS011;31071;51.478;5.710;2023-03-04T13:30:44;5.35;;;3.13;;
45338;SDS011;31071;51.478;5.710;2023-03-04T13:33:52;6.05;;;4.00;;
45338;SDS011;31071;51.478;5.710;2023-03-04T13:36:25;4.20;;;3.13;;
45338;SDS011;31071;51.478;5.710;2023-03-04T13:38:57;7.75;;;5.25;;
45338;SDS011;31071;51.478;5.710;2023-03-04T13:41:46;3.65;;;3.08;;
45338;SDS011;31071;51.478;5.710;2023-03-04T13:47:08;13.77;;;11.18;;
45338;SDS011;31071;51.478;5.710;2023-03-04T13:49:44;6.90;;;4.10;;
45338;SDS011;31071;51.478;5.710;2023-03-04T13:55:32;4.28;;;3.97;;
45338;SDS011;31071;51.478;5.710;2023-03-04T13:57:58;9.00;;;5.10;;
45338;SDS011;31071;51.478;5.710;2023-03-04T14:00:24;5.90;;;4.55;;
45338;SDS011;31071;51.478;5.710;2023-03-04T14:02:51;5.95;;;4.10;;
45338;SDS011;31071;51.478;5.710;2023-03-04T14:05:17;4.95;;;4.07;;
45338;SDS011;31071;51.478;5.710;2023-03-04T14:07:42;5.55;;;4.97;;
45338;SDS011;31071;51.478;5.710;2023-03-04T14:12:38;4.70;;;3.53;;
45338;SDS011;31071;51.478;5.710;2023-03-04T14:15:20;6.43;;;3.30;;
45338;SDS011;31071;51.478;5.710;2023-03-04T14:17:54;4.45;;;3.10;;
45338;SDS011;31071;51.478;5.710;2023-03-04T14:20:32;8.18;;;3.58;;
45338;SDS011;31071;51.478;5.710;2023-03-04T14:23:06;5.05;;;2.90;;
45338;SDS011;31071;51.478;5.710;2023-03-04T14:25:59;5.28;;;3.00;;
45338;SDS011;31071;51.478;5.710;2023-03-04T14:28:41;6.18;;;2.75;;
45338;SDS011;31071;51.478;5.710;2023-03-04T14:31:17;5.43;;;2.90;;
45338;SDS011;31071;51.478;5.710;2023-03-04T14:33:45;3.88;;;2.53;;
45338;SDS011;31071;51.478;5.710;2023-03-04T14:36:14;4.70;;;2.70;;
45338;SDS011;31071;51.478;5.710;2023-03-04T14:38:49;5.53;;;2.55;;
45338;SDS011;31071;51.478;5.710;2023-03-04T14:41:26;2.70;;;2.50;;
45338;SDS011;31071;51.478;5.710;2023-03-04T14:46:48;3.03;;;2.60;;
45338;SDS011;31071;51.478;5.710;2023-03-04T14:51:50;5.82;;;3.30;;
45338;SDS011;31071;51.478;5.710;2023-03-04T14:54:28;6.43;;;3.58;;
45338;SDS011;31071;51.478;5.710;2023-03-04T14:57:23;8.73;;;3.72;;
45338;SDS011;31071;51.478;5.710;2023-03-04T14:59:51;4.88;;;2.25;;
45338;SDS011;31071;51.478;5.710;2023-03-04T15:02:28;5.30;;;2.25;;
45338;SDS011;31071;51.478;5.710;2023-03-04T15:05:09;4.18;;;2.50;;
45338;SDS011;31071;51.478;5.710;2023-03-04T15:07:41;5.43;;;2.20;;
45338;SDS011;31071;51.478;5.710;2023-03-04T15:10:08;4.43;;;2.40;;
45338;SDS011;31071;51.478;5.710;2023-03-04T15:12:37;7.03;;;2.28;;
45338;SDS011;31071;51.478;5.710;2023-03-04T15:17:57;2.20;;;1.80;;
45338;SDS011;31071;51.478;5.710;2023-03-04T15:20:25;3.53;;;2.00;;
45338;SDS011;31071;51.478;5.710;2023-03-04T15:25:18;6.15;;;2.20;;
45338;SDS011;31071;51.478;5.710;2023-03-04T15:27:45;5.32;;;1.90;;
45338;SDS011;31071;51.478;5.710;2023-03-04T15:30:15;4.65;;;1.98;;
45338;SDS011;31071;51.478;5.710;2023-03-04T15:32:42;6.72;;;3.20;;
45338;SDS011;31071;51.478;5.710;2023-03-04T15:35:11;8.38;;;2.03;;
45338;SDS011;31071;51.478;5.710;2023-03-04T15:37:37;10.27;;;2.72;;
45338;SDS011;31071;51.478;5.710;2023-03-04T15:40:03;4.90;;;2.13;;
45338;SDS011;31071;51.478;5.710;2023-03-04T15:42:38;5.45;;;2.00;;
45338;SDS011;31071;51.478;5.710;2023-03-04T15:45:10;11.20;;;1.90;;
45338;SDS011;31071;51.478;5.710;2023-03-04T15:47:44;10.05;;;1.88;;
45338;SDS011;31071;51.478;5.710;2023-03-04T15:50:10;4.97;;;1.88;;
45338;SDS011;31071;51.478;5.710;2023-03-04T15:52:35;4.55;;;1.80;;
45338;SDS011;31071;51.478;5.710;2023-03-04T15:55:03;7.30;;;1.85;;
45338;SDS011;31071;51.478;5.710;2023-03-04T15:57:37;11.45;;;2.10;;
45338;SDS011;31071;51.478;5.710;2023-03-04T16:00:03;7.75;;;1.60;;
45338;SDS011;31071;51.478;5.710;2023-03-04T16:02:29;11.35;;;2.03;;
45338;SDS011;31071;51.478;5.710;2023-03-04T16:04:55;8.05;;;1.90;;
45338;SDS011;31071;51.478;5.710;2023-03-04T16:07:23;9.75;;;1.60;;
45338;SDS011;31071;51.478;5.710;2023-03-04T16:09:54;11.82;;;2.13;;
45338;SDS011;31071;51.478;5.710;2023-03-04T16:12:21;6.38;;;1.52;;
45338;SDS011;31071;51.478;5.710;2023-03-04T16:14:50;10.23;;;1.60;;
45338;SDS011;31071;51.478;5.710;2023-03-04T16:17:16;9.77;;;1.63;;
45338;SDS011;31071;51.478;5.710;2023-03-04T16:19:42;8.82;;;2.00;;
45338;SDS011;31071;51.478;5.710;2023-03-04T16:22:09;7.85;;;1.58;;
45338;SDS011;31071;51.478;5.710;2023-03-04T16:24:38;7.90;;;1.45;;
45338;SDS011;31071;51.478;5.710;2023-03-04T16:27:05;8.85;;;1.70;;
45338;SDS011;31071;51.478;5.710;2023-03-04T16:29:34;5.18;;;1.40;;
45338;SDS011;31071;51.478;5.710;2023-03-04T16:32:00;13.93;;;2.22;;
45338;SDS011;31071;51.478;5.710;2023-03-04T16:34:25;9.73;;;1.75;;
45338;SDS011;31071;51.478;5.710;2023-03-04T16:36:51;7.93;;;1.50;;
45338;SDS011;31071;51.478;5.710;2023-03-04T16:39:21;9.07;;;1.50;;
45338;SDS011;31071;51.478;5.710;2023-03-04T16:41:50;9.32;;;1.58;;
45338;SDS011;31071;51.478;5.710;2023-03-04T16:44:16;5.22;;;1.27;;
45338;SDS011;31071;51.478;5.710;2023-03-04T16:46:42;5.70;;;0.95;;
45338;SDS011;31071;51.478;5.710;2023-03-04T16:49:08;6.70;;;1.27;;
45338;SDS011;31071;51.478;5.710;2023-03-04T16:51:35;4.05;;;1.10;;
45338;SDS011;31071;51.478;5.710;2023-03-04T16:54:09;7.90;;;1.30;;
45338;SDS011;31071;51.478;5.710;2023-03-04T16:56:42;11.98;;;1.40;;
45338;SDS011;31071;51.478;5.710;2023-03-04T16:59:10;4.50;;;1.10;;
45338;SDS011;31071;51.478;5.710;2023-03-04T17:01:39;7.18;;;1.55;;
45338;SDS011;31071;51.478;5.710;2023-03-04T17:04:05;5.28;;;1.23;;
45338;SDS011;31071;51.478;5.710;2023-03-04T17:06:31;8.90;;;1.38;;
45338;SDS011;31071;51.478;5.710;2023-03-04T17:08:58;6.95;;;1.98;;
45338;SDS011;31071;51.478;5.710;2023-03-04T17:11:23;6.35;;;1.95;;
45338;SDS011;31071;51.478;5.710;2023-03-04T17:13:50;10.07;;;2.17;;
45338;SDS011;31071;51.478;5.710;2023-03-04T17:16:16;11.85;;;1.98;;
45338;SDS011;31071;51.478;5.710;2023-03-04T17:18:42;6.78;;;1.70;;
45338;SDS011;31071;51.478;5.710;2023-03-04T17:21:10;7.57;;;1.45;;
45338;SDS011;31071;51.478;5.710;2023-03-04T17:23:37;4.72;;;1.40;;
45338;SDS011;31071;51.478;5.710;2023-03-04T17:26:03;5.28;;;1.50;;
45338;SDS011;31071;51.478;5.710;2023-03-04T17:28:29;2.05;;;0.50;;
45338;SDS011;31071;51.478;5.710;2023-03-04T17:30:55;4.22;;;0.77;;
45338;SDS011;31071;51.478;5.710;2023-03-04T17:33:21;7.18;;;0.90;;
45338;SDS011;31071;51.478;5.710;2023-03-04T17:35:46;4.63;;;1.10;;
45338;SDS011;31071;51.478;5.710;2023-03-04T17:38:12;4.18;;;0.80;;
45338;SDS011;31071;51.478;5.710;2023-03-04T17:40:39;4.88;;;1.35;;
45338;SDS011;31071;51.478;5.710;2023-03-04T17:43:05;1.75;;;0.73;;
45338;SDS011;31071;51.478;5.710;2023-03-04T17:45:36;5.97;;;0.90;;
45338;SDS011;31071;51.478;5.710;2023-03-04T17:48:05;3.17;;;0.88;;
45338;SDS011;31071;51.478;5.710;2023-03-04T17:50:32;2.55;;;0.82;;
45338;SDS011;31071;51.478;5.710;2023-03-04T17:52:58;4.90;;;1.00;;
45338;SDS011;31071;51.478;5.710;2023-03-04T17:55:24;1.88;;;0.73;;
45338;SDS011;31071;51.478;5.710;2023-03-04T17:57:49;4.05;;;1.10;;
45338;SDS011;31071;51.478;5.710;2023-03-04T18:00:19;4.90;;;0.90;;
45338;SDS011;31071;51.478;5.710;2023-03-04T18:02:45;3.85;;;1.00;;
45338;SDS011;31071;51.478;5.710;2023-03-04T18:05:11;4.60;;;1.00;;
45338;SDS011;31071;51.478;5.710;2023-03-04T18:07:36;4.63;;;1.10;;
45338;SDS011;31071;51.478;5.710;2023-03-04T18:10:02;4.22;;;1.00;;
45338;SDS011;31071;51.478;5.710;2023-03-04T18:12:28;6.75;;;1.15;;
45338;SDS011;31071;51.478;5.710;2023-03-04T18:14:54;3.75;;;1.02;;
45338;SDS011;31071;51.478;5.710;2023-03-04T18:17:20;9.07;;;1.40;;
45338;SDS011;31071;51.478;5.710;2023-03-04T18:19:45;3.20;;;1.08;;
45338;SDS011;31071;51.478;5.710;2023-03-04T18:22:11;8.15;;;1.33;;
45338;SDS011;31071;51.478;5.710;2023-03-04T18:24:37;3.60;;;1.05;;
45338;SDS011;31071;51.478;5.710;2023-03-04T18:27:05;3.70;;;0.95;;
45338;SDS011;31071;51.478;5.710;2023-03-04T18:29:31;3.85;;;1.35;;
45338;SDS011;31071;51.478;5.710;2023-03-04T18:31:58;4.40;;;1.00;;
45338;SDS011;31071;51.478;5.710;2023-03-04T18:34:24;5.05;;;1.27;;
45338;SDS011;31071;51.478;5.710;2023-03-04T18:36:50;5.18;;;0.90;;
45338;SDS011;31071;51.478;5.710;2023-03-04T18:39:16;4.38;;;1.10;;
45338;SDS011;31071;51.478;5.710;2023-03-04T18:41:42;8.80;;;1.30;;
45338;SDS011;31071;51.478;5.710;2023-03-04T18:44:07;4.88;;;1.20;;
45338;SDS011;31071;51.478;5.710;2023-03-04T18:46:37;7.20;;;2.03;;
45338;SDS011;31071;51.478;5.710;2023-03-04T18:49:04;8.63;;;4.45;;
45338;SDS011;31071;51.478;5.710;2023-03-04T18:51:32;7.90;;;2.50;;
45338;SDS011;31071;51.478;5.710;2023-03-04T18:53:58;10.35;;;5.35;;
45338;SDS011;31071;51.478;5.710;2023-03-04T18:56:46;6.50;;;2.20;;
45338;SDS011;31071;51.478;5.710;2023-03-04T19:01:40;7.95;;;2.80;;
45338;SDS011;31071;51.478;5.710;2023-03-04T19:04:06;9.20;;;2.63;;
45338;SDS011;31071;51.478;5.710;2023-03-04T19:06:32;6.07;;;1.90;;
45338;SDS011;31071;51.478;5.710;2023-03-04T19:08:58;9.95;;;2.60;;
45338;SDS011;31071;51.478;5.710;2023-03-04T19:11:24;9.43;;;2.60;;
45338;SDS011;31071;51.478;5.710;2023-03-04T19:13:50;7.32;;;1.65;;
45338;SDS011;31071;51.478;5.710;2023-03-04T19:16:16;7.78;;;2.10;;
45338;SDS011;31071;51.478;5.710;2023-03-04T19:18:42;7.47;;;1.60;;
45338;SDS011;31071;51.478;5.710;2023-03-04T19:21:07;8.75;;;1.77;;
45338;SDS011;31071;51.478;5.710;2023-03-04T19:23:33;4.07;;;1.73;;
45338;SDS011;31071;51.478;5.710;2023-03-04T19:25:59;9.70;;;2.35;;
45338;SDS011;31071;51.478;5.710;2023-03-04T19:28:25;9.65;;;2.65;;
45338;SDS011;31071;51.478;5.710;2023-03-04T19:30:50;6.50;;;1.75;;
45338;SDS011;31071;51.478;5.710;2023-03-04T19:33:17;8.70;;;2.17;;
45338;SDS011;31071;51.478;5.710;2023-03-04T19:35:43;12.35;;;4.40;;
45338;SDS011;31071;51.478;5.710;2023-03-04T19:38:09;7.55;;;4.22;;
45338;SDS011;31071;51.478;5.710;2023-03-04T19:40:39;8.25;;;3.13;;
45338;SDS011;31071;51.478;5.710;2023-03-04T19:43:06;11.98;;;3.92;;
45338;SDS011;31071;51.478;5.710;2023-03-04T19:45:32;6.18;;;1.70;;
45338;SDS011;31071;51.478;5.710;2023-03-04T19:47:58;9.57;;;2.00;;
45338;SDS011;31071;51.478;5.710;2023-03-04T19:50:26;8.40;;;2.30;;
45338;SDS011;31071;51.478;5.710;2023-03-04T19:52:52;12.35;;;1.92;;
45338;SDS011;31071;51.478;5.710;2023-03-04T19:55:18;7.63;;;1.88;;
45338;SDS011;31071;51.478;5.710;2023-03-04T19:57:44;8.38;;;1.67;;
45338;SDS011;31071;51.478;5.710;2023-03-04T20:00:10;5.07;;;1.95;;
45338;SDS011;31071;51.478;5.710;2023-03-04T20:02:39;7.70;;;2.10;;
45338;SDS011;31071;51.478;5.710;2023-03-04T20:05:07;6.07;;;1.50;;
45338;SDS011;31071;51.478;5.710;2023-03-04T20:07:33;8.07;;;2.28;;
45338;SDS011;31071;51.478;5.710;2023-03-04T20:09:58;9.23;;;1.83;;
45338;SDS011;31071;51.478;5.710;2023-03-04T20:12:24;9.57;;;1.98;;
45338;SDS011;31071;51.478;5.710;2023-03-04T20:14:49;16.45;;;1.77;;
45338;SDS011;31071;51.478;5.710;2023-03-04T20:17:15;10.68;;;1.73;;
45338;SDS011;31071;51.478;5.710;2023-03-04T20:19:41;10.70;;;2.10;;
45338;SDS011;31071;51.478;5.710;2023-03-04T20:22:08;10.00;;;1.65;;
45338;SDS011;31071;51.478;5.710;2023-03-04T20:24:33;15.40;;;2.05;;
45338;SDS011;31071;51.478;5.710;2023-03-04T20:26:59;12.55;;;2.10;;
45338;SDS011;31071;51.478;5.710;2023-03-04T20:29:25;10.65;;;2.05;;
45338;SDS011;31071;51.478;5.710;2023-03-04T20:31:52;8.38;;;1.83;;
45338;SDS011;31071;51.478;5.710;2023-03-04T20:34:18;12.63;;;2.40;;
45338;SDS011;31071;51.478;5.710;2023-03-04T20:36:47;13.90;;;2.45;;
45338;SDS011;31071;51.478;5.710;2023-03-04T20:39:15;12.27;;;1.80;;
45338;SDS011;31071;51.478;5.710;2023-03-04T20:41:46;6.22;;;2.08;;
45338;SDS011;31071;51.478;5.710;2023-03-04T20:44:12;12.40;;;1.90;;
45338;SDS011;31071;51.478;5.710;2023-03-04T20:46:41;12.88;;;1.92;;
45338;SDS011;31071;51.478;5.710;2023-03-04T20:49:25;19.80;;;2.53;;
